createdAt,value
2019-01-12T00:00:33.311Z,14.40
2019-01-12T00:01:33.439Z,14.40
2019-01-12T00:02:33.566Z,14.30
2019-01-12T00:03:33.696Z,13.80
2019-01-12T00:04:33.824Z,13.00
2019-01-12T00:05:33.950Z,13.50
2019-01-12T00:06:34.080Z,13.60
2019-01-12T00:07:34.209Z,14.00
2019-01-12T00:08:34.339Z,13.30
2019-01-12T00:09:34.469Z,13.90
2019-01-12T00:10:34.598Z,13.10
2019-01-12T00:11:34.724Z,12.70
2019-01-12T00:12:34.865Z,13.20
2019-01-12T00:13:34.989Z,13.60
2019-01-12T00:14:35.182Z,12.90
2019-01-12T00:15:35.188Z,12.70
2019-01-12T00:16:35.315Z,13.10
2019-01-12T00:17:35.447Z,13.40
2019-01-12T00:18:35.566Z,13.20
2019-01-12T00:19:35.695Z,12.90
2019-01-12T00:20:35.825Z,13.70
2019-01-12T00:21:35.961Z,12.80
2019-01-12T00:22:36.088Z,13.20
2019-01-12T00:23:36.220Z,13.10
2019-01-12T00:24:36.350Z,13.10
2019-01-12T00:25:36.478Z,13.80
2019-01-12T00:26:36.609Z,13.20
2019-01-12T00:27:36.750Z,12.50
2019-01-12T00:28:36.882Z,12.50
2019-01-12T00:29:37.006Z,12.60
2019-01-12T00:30:37.130Z,13.30
2019-01-12T00:31:37.302Z,12.80
2019-01-12T00:32:37.425Z,12.70
2019-01-12T00:33:37.545Z,12.40
2019-01-12T00:34:37.678Z,12.90
2019-01-12T00:35:37.810Z,13.10
2019-01-12T00:36:37.948Z,13.20
2019-01-12T00:37:38.076Z,12.70
2019-01-12T00:38:38.210Z,12.30
2019-01-12T00:39:38.333Z,13.20
2019-01-12T00:40:38.462Z,12.80
2019-01-12T00:41:38.591Z,13.00
2019-01-12T00:42:38.716Z,12.00
2019-01-12T00:43:38.848Z,12.80
2019-01-12T00:44:38.975Z,12.20
2019-01-12T00:45:39.105Z,12.50
2019-01-12T00:46:39.236Z,12.50
2019-01-12T00:47:39.365Z,12.30
2019-01-12T00:48:39.496Z,11.70
2019-01-12T00:49:39.623Z,12.20
2019-01-12T00:50:39.748Z,12.30
2019-01-12T00:51:39.873Z,12.50
2019-01-12T00:52:40.000Z,12.30
2019-01-12T00:53:40.132Z,12.00
2019-01-12T00:54:40.259Z,12.20
2019-01-12T00:55:40.389Z,12.00
2019-01-12T00:56:40.520Z,12.60
2019-01-12T00:57:40.651Z,11.80
2019-01-12T00:58:40.772Z,12.70
2019-01-12T00:59:40.903Z,12.20
2019-01-12T01:00:41.035Z,12.30
2019-01-12T01:01:41.164Z,13.80
2019-01-12T01:02:41.289Z,13.00
2019-01-12T01:03:41.408Z,12.80
2019-01-12T01:04:41.546Z,12.90
2019-01-12T01:05:41.676Z,13.70
2019-01-12T01:06:41.800Z,13.60
2019-01-12T01:07:41.941Z,14.10
2019-01-12T01:08:42.079Z,15.00
2019-01-12T01:09:42.200Z,14.60
2019-01-12T01:10:42.330Z,14.20
2019-01-12T01:11:42.475Z,13.60
2019-01-12T01:12:42.606Z,13.30
2019-01-12T01:13:42.732Z,13.00
2019-01-12T01:14:42.864Z,13.60
2019-01-12T01:15:42.990Z,14.20
2019-01-12T01:16:43.118Z,14.60
2019-01-12T01:17:43.238Z,14.30
2019-01-12T01:18:43.365Z,14.80
2019-01-12T01:19:43.498Z,14.50
2019-01-12T01:20:43.627Z,14.50
2019-01-12T01:21:43.756Z,15.80
2019-01-12T01:22:43.881Z,15.30
2019-01-12T01:23:44.014Z,14.70
2019-01-12T01:24:46.017Z,15.40
2019-01-12T01:25:44.315Z,14.80
2019-01-12T01:26:44.399Z,15.40
2019-01-12T01:27:44.528Z,15.70
2019-01-12T01:28:44.657Z,16.70
2019-01-12T01:29:44.788Z,15.20
2019-01-12T01:30:44.910Z,15.80
2019-01-12T01:31:45.040Z,16.30
2019-01-12T01:32:45.173Z,15.40
2019-01-12T01:33:45.301Z,16.00
2019-01-12T01:34:45.432Z,15.90
2019-01-12T01:35:45.561Z,15.70
2019-01-12T01:36:45.690Z,15.70
2019-01-12T01:37:45.815Z,16.30
2019-01-12T01:38:45.943Z,16.90
2019-01-12T01:39:46.076Z,16.30
2019-01-12T01:40:46.206Z,15.90
2019-01-12T01:41:46.329Z,15.30
2019-01-12T01:42:46.460Z,15.30
2019-01-12T01:43:46.584Z,16.00
2019-01-12T01:44:46.715Z,16.00
2019-01-12T01:45:46.839Z,15.30
2019-01-12T01:46:46.965Z,14.60
2019-01-12T01:47:47.098Z,15.20
2019-01-12T01:48:47.219Z,14.50
2019-01-12T01:49:47.351Z,15.60
2019-01-12T01:50:47.474Z,14.50
2019-01-12T01:51:47.614Z,14.70
2019-01-12T01:52:48.487Z,13.20
2019-01-12T01:53:47.864Z,13.60
2019-01-12T01:54:52.797Z,13.10
2019-01-12T01:55:48.120Z,12.80
2019-01-12T01:56:48.247Z,13.20
2019-01-12T01:57:48.376Z,12.90
2019-01-12T01:58:48.502Z,12.50
2019-01-12T01:59:48.631Z,12.70
2019-01-12T02:00:48.758Z,13.00
2019-01-12T02:01:48.884Z,13.10
2019-01-12T02:02:49.941Z,12.80
2019-01-12T02:03:49.095Z,12.90
2019-01-12T02:04:49.230Z,13.10
2019-01-12T02:05:49.358Z,12.90
2019-01-12T02:06:49.487Z,13.80
2019-01-12T02:07:49.615Z,12.80
2019-01-12T02:08:49.744Z,12.70
2019-01-12T02:09:49.882Z,12.70
2019-01-12T02:10:50.016Z,13.10
2019-01-12T02:11:50.135Z,12.70
2019-01-12T02:12:50.266Z,13.60
2019-01-12T02:13:50.396Z,13.60
2019-01-12T02:14:50.523Z,13.40
2019-01-12T02:15:50.652Z,13.90
2019-01-12T02:16:50.783Z,13.80
2019-01-12T02:17:50.907Z,13.90
2019-01-12T02:18:51.050Z,13.10
2019-01-12T02:19:51.179Z,12.80
2019-01-12T02:20:51.304Z,13.30
2019-01-12T02:21:51.430Z,13.00
2019-01-12T02:22:51.557Z,12.80
2019-01-12T02:23:51.688Z,12.60
2019-01-12T02:24:51.820Z,13.90
2019-01-12T02:25:51.951Z,12.70
2019-01-12T02:26:52.081Z,12.70
2019-01-12T02:27:52.211Z,12.70
2019-01-12T02:28:52.333Z,12.80
2019-01-12T02:29:52.462Z,12.70
2019-01-12T02:30:52.592Z,13.20
2019-01-12T02:31:52.714Z,12.20
2019-01-12T02:32:52.842Z,12.10
2019-01-12T02:33:53.043Z,12.80
2019-01-12T02:34:53.045Z,12.60
2019-01-12T02:35:53.179Z,13.20
2019-01-12T02:36:53.310Z,13.20
2019-01-12T02:37:53.443Z,12.60
2019-01-12T02:38:53.570Z,12.30
2019-01-12T02:39:53.694Z,13.10
2019-01-12T02:40:53.820Z,12.60
2019-01-12T02:41:53.947Z,12.20
2019-01-12T02:42:54.079Z,12.30
2019-01-12T02:43:54.207Z,11.60
2019-01-12T02:44:54.342Z,12.00
2019-01-12T02:45:54.465Z,12.80
2019-01-12T02:46:54.593Z,12.20
2019-01-12T02:47:54.721Z,12.00
2019-01-12T02:48:54.854Z,11.90
2019-01-12T02:49:54.982Z,12.30
2019-01-12T02:50:55.961Z,12.30
2019-01-12T02:51:55.219Z,12.10
2019-01-12T02:52:55.350Z,12.10
2019-01-12T02:53:55.483Z,11.70
2019-01-12T02:54:55.611Z,11.80
2019-01-12T02:55:55.737Z,12.20
2019-01-12T02:56:55.868Z,11.70
2019-01-12T02:57:56.002Z,12.00
2019-01-12T02:58:56.128Z,11.40
2019-01-12T02:59:56.256Z,12.10
2019-01-12T03:00:56.410Z,12.10
2019-01-12T03:01:56.515Z,11.50
2019-01-12T03:02:56.646Z,12.20
2019-01-12T03:03:56.772Z,12.00
2019-01-12T03:04:56.958Z,12.00
2019-01-12T03:05:57.082Z,11.80
2019-01-12T03:06:57.212Z,11.90
2019-01-12T03:07:57.351Z,12.50
2019-01-12T03:08:57.483Z,11.50
2019-01-12T03:09:57.612Z,11.90
2019-01-12T03:10:57.734Z,11.90
2019-01-12T03:11:57.859Z,12.00
2019-01-12T03:12:57.985Z,11.40
2019-01-12T03:13:58.114Z,12.10
2019-01-12T03:14:58.241Z,11.60
2019-01-12T03:15:58.373Z,11.80
2019-01-12T03:16:58.509Z,11.60
2019-01-12T03:17:58.633Z,11.60
2019-01-12T03:18:58.765Z,11.20
2019-01-12T03:19:58.888Z,10.90
2019-01-12T03:20:59.016Z,11.00
2019-01-12T03:21:59.141Z,10.70
2019-01-12T03:22:59.279Z,10.90
2019-01-12T03:23:59.397Z,11.30
2019-01-12T03:25:00.455Z,11.50
2019-01-12T03:25:59.620Z,11.40
2019-01-12T03:26:59.739Z,11.60
2019-01-12T03:27:59.858Z,11.50
2019-01-12T03:28:59.988Z,10.90
2019-01-12T03:30:00.197Z,11.30
2019-01-12T03:31:00.236Z,11.30
2019-01-12T03:32:00.374Z,12.20
2019-01-12T03:33:00.490Z,11.80
2019-01-12T03:34:00.613Z,11.10
2019-01-12T03:35:00.752Z,11.20
2019-01-12T03:36:00.873Z,11.70
2019-01-12T03:37:00.999Z,12.10
2019-01-12T03:38:01.125Z,11.70
2019-01-12T03:39:01.936Z,11.90
2019-01-12T03:40:01.344Z,11.50
2019-01-12T03:41:01.473Z,11.10
2019-01-12T03:42:01.601Z,11.40
2019-01-12T03:43:01.731Z,11.50
2019-01-12T03:44:01.857Z,11.50
2019-01-12T03:45:01.988Z,11.80
2019-01-12T03:46:02.115Z,12.00
2019-01-12T03:47:02.241Z,11.70
2019-01-12T03:48:02.373Z,11.50
2019-01-12T03:49:02.498Z,11.80
2019-01-12T03:50:02.629Z,11.30
2019-01-12T03:51:02.753Z,12.10
2019-01-12T03:52:02.885Z,11.40
2019-01-12T03:53:03.023Z,11.50
2019-01-12T03:54:03.145Z,11.40
2019-01-12T03:55:03.283Z,11.60
2019-01-12T03:56:03.419Z,11.20
2019-01-12T03:57:03.543Z,11.00
2019-01-12T03:58:03.672Z,11.20
2019-01-12T03:59:03.805Z,10.30
2019-01-12T04:00:03.929Z,10.40
2019-01-12T04:01:04.068Z,11.20
2019-01-12T04:02:04.201Z,10.80
2019-01-12T04:03:04.330Z,10.80
2019-01-12T04:04:04.458Z,9.90
2019-01-12T04:05:04.581Z,10.50
2019-01-12T04:06:04.711Z,10.40
2019-01-12T04:07:04.844Z,9.70
2019-01-12T04:08:04.976Z,10.30
2019-01-12T04:09:05.100Z,10.10
2019-01-12T04:10:05.224Z,9.80
2019-01-12T04:11:05.353Z,10.40
2019-01-12T04:12:05.481Z,10.20
2019-01-12T04:13:05.651Z,9.80
2019-01-12T04:14:05.777Z,10.20
2019-01-12T04:15:05.910Z,9.60
2019-01-12T04:16:06.045Z,9.80
2019-01-12T04:17:06.174Z,9.60
2019-01-12T04:18:06.299Z,9.50
2019-01-12T04:19:06.428Z,9.30
2019-01-12T04:20:06.557Z,8.60
2019-01-12T04:21:06.683Z,9.70
2019-01-12T04:22:06.813Z,8.80
2019-01-12T04:23:06.949Z,8.70
2019-01-12T04:24:07.072Z,8.90
2019-01-12T04:25:07.202Z,8.40
2019-01-12T04:26:07.328Z,8.20
2019-01-12T04:27:07.454Z,8.80
2019-01-12T04:28:07.588Z,8.90
2019-01-12T04:29:07.710Z,9.30
2019-01-12T04:30:07.834Z,7.90
2019-01-12T04:31:07.963Z,7.80
2019-01-12T04:32:08.096Z,8.00
2019-01-12T04:33:08.226Z,8.60
2019-01-12T04:34:08.362Z,8.60
2019-01-12T04:35:08.486Z,8.50
2019-01-12T04:36:08.617Z,8.70
2019-01-12T04:37:08.744Z,9.50
2019-01-12T04:38:08.877Z,9.10
2019-01-12T04:39:09.024Z,8.50
2019-01-12T04:40:09.147Z,8.00
2019-01-12T04:41:09.278Z,8.40
2019-01-12T04:42:09.401Z,7.90
2019-01-12T04:43:09.539Z,7.30
2019-01-12T04:44:09.664Z,7.90
2019-01-12T04:45:09.794Z,8.30
2019-01-12T04:46:09.926Z,7.40
2019-01-12T04:47:10.052Z,7.40
2019-01-12T04:48:10.176Z,7.50
2019-01-12T04:49:10.308Z,7.10
2019-01-12T04:50:10.435Z,6.60
2019-01-12T04:51:10.561Z,5.90
2019-01-12T04:52:10.696Z,5.60
2019-01-12T04:53:10.825Z,6.20
2019-01-12T04:54:10.958Z,5.90
2019-01-12T04:55:11.086Z,6.20
2019-01-12T04:56:11.218Z,5.60
2019-01-12T04:57:11.348Z,5.60
2019-01-12T04:58:11.478Z,5.50
2019-01-12T04:59:11.607Z,5.60
2019-01-12T05:00:11.729Z,5.60
2019-01-12T05:01:11.877Z,5.60
2019-01-12T05:02:12.000Z,5.50
2019-01-12T05:03:12.125Z,6.40
2019-01-12T05:04:12.251Z,6.80
2019-01-12T05:05:12.382Z,5.70
2019-01-12T05:06:12.508Z,6.00
2019-01-12T05:07:12.636Z,6.00
2019-01-12T05:08:12.771Z,6.00
2019-01-12T05:09:12.898Z,5.60
2019-01-12T05:10:13.039Z,5.50
2019-01-12T05:11:13.181Z,5.80
2019-01-12T05:12:13.311Z,5.40
2019-01-12T05:13:13.940Z,4.80
2019-01-12T05:14:13.598Z,5.10
2019-01-12T05:15:13.725Z,5.20
2019-01-12T05:16:13.857Z,5.50
2019-01-12T05:17:13.988Z,5.30
2019-01-12T05:18:14.115Z,5.20
2019-01-12T05:19:14.243Z,5.30
2019-01-12T05:20:14.374Z,5.00
2019-01-12T05:21:14.509Z,5.10
2019-01-12T05:22:14.635Z,5.00
2019-01-12T05:23:14.763Z,5.00
2019-01-12T05:24:14.893Z,5.70
2019-01-12T05:25:15.027Z,5.80
2019-01-12T05:26:15.152Z,6.10
2019-01-12T05:27:15.279Z,6.10
2019-01-12T05:28:15.408Z,6.00
2019-01-12T05:29:15.536Z,6.20
2019-01-12T05:30:17.020Z,5.60
2019-01-12T05:31:15.802Z,6.40
2019-01-12T05:32:15.938Z,6.40
2019-01-12T05:33:16.064Z,6.30
2019-01-12T05:34:16.185Z,6.10
2019-01-12T05:35:16.313Z,5.70
2019-01-12T05:36:16.444Z,5.70
2019-01-12T05:37:16.575Z,5.60
2019-01-12T05:38:16.707Z,5.90
2019-01-12T05:39:16.830Z,6.70
2019-01-12T05:40:16.966Z,7.90
2019-01-12T05:41:17.094Z,6.00
2019-01-12T05:42:17.227Z,6.00
2019-01-12T05:43:17.359Z,5.80
2019-01-12T05:44:17.479Z,5.50
2019-01-12T05:45:17.617Z,5.90
2019-01-12T05:46:17.747Z,6.20
2019-01-12T05:47:17.872Z,5.60
2019-01-12T05:48:18.000Z,5.80
2019-01-12T05:49:18.127Z,5.90
2019-01-12T05:50:18.260Z,6.40
2019-01-12T05:51:18.394Z,5.40
2019-01-12T05:52:18.521Z,5.10
2019-01-12T05:53:18.657Z,5.10
2019-01-12T05:54:18.781Z,5.40
2019-01-12T05:55:18.910Z,5.40
2019-01-12T05:56:19.039Z,5.20
2019-01-12T05:57:19.168Z,5.30
2019-01-12T05:58:19.296Z,5.50
2019-01-12T05:59:19.425Z,5.00
2019-01-12T06:00:19.552Z,5.60
2019-01-12T06:01:19.682Z,5.30
2019-01-12T06:02:19.813Z,5.10
2019-01-12T06:03:19.940Z,5.00
2019-01-12T06:04:20.064Z,5.00
2019-01-12T06:05:20.195Z,4.60
2019-01-12T06:06:20.306Z,5.00
2019-01-12T06:07:20.451Z,4.80
2019-01-12T06:08:20.588Z,4.60
2019-01-12T06:09:20.718Z,4.30
2019-01-12T06:10:20.858Z,4.10
2019-01-12T06:11:20.988Z,4.00
2019-01-12T06:12:21.115Z,4.10
2019-01-12T06:13:21.239Z,4.00
2019-01-12T06:14:21.364Z,3.80
2019-01-12T06:15:21.494Z,4.40
2019-01-12T06:16:21.620Z,4.40
2019-01-12T06:17:21.750Z,4.50
2019-01-12T06:18:21.881Z,4.60
2019-01-12T06:19:22.010Z,4.80
2019-01-12T06:20:22.133Z,4.40
2019-01-12T06:21:22.264Z,4.90
2019-01-12T06:22:22.397Z,5.60
2019-01-12T06:23:22.523Z,5.50
2019-01-12T06:24:22.646Z,5.10
2019-01-12T06:25:22.782Z,5.30
2019-01-12T06:26:22.908Z,5.40
2019-01-12T06:27:23.037Z,5.90
2019-01-12T06:28:23.186Z,5.60
2019-01-12T06:29:23.311Z,5.40
2019-01-12T06:30:23.449Z,5.40
2019-01-12T06:31:23.575Z,5.50
2019-01-12T06:32:23.728Z,5.50
2019-01-12T06:33:23.839Z,5.60
2019-01-12T06:34:23.968Z,6.10
2019-01-12T06:35:24.091Z,5.80
2019-01-12T06:36:24.223Z,5.90
2019-01-12T06:37:24.356Z,6.00
2019-01-12T06:38:24.478Z,5.80
2019-01-12T06:39:24.610Z,5.70
2019-01-12T06:40:24.749Z,5.70
2019-01-12T06:41:24.865Z,6.20
2019-01-12T06:42:24.990Z,6.30
2019-01-12T06:43:25.122Z,5.70
2019-01-12T06:44:25.291Z,5.60
2019-01-12T06:45:25.421Z,5.30
2019-01-12T06:46:25.558Z,5.70
2019-01-12T06:47:25.697Z,5.50
2019-01-12T06:48:25.820Z,5.80
2019-01-12T06:49:25.947Z,5.90
2019-01-12T06:50:26.075Z,5.30
2019-01-12T06:51:26.201Z,5.00
2019-01-12T06:52:26.332Z,5.30
2019-01-12T06:53:26.464Z,5.00
2019-01-12T06:54:26.596Z,4.70
2019-01-12T06:55:26.721Z,4.80
2019-01-12T06:56:26.850Z,5.00
2019-01-12T06:57:26.974Z,5.20
2019-01-12T06:58:27.106Z,4.80
2019-01-12T06:59:27.235Z,5.30
2019-01-12T07:00:27.364Z,5.40
2019-01-12T07:01:27.496Z,5.50
2019-01-12T07:02:27.620Z,5.60
2019-01-12T07:03:27.757Z,5.70
2019-01-12T07:04:27.909Z,6.00
2019-01-12T07:05:28.035Z,6.30
2019-01-12T07:06:28.159Z,6.50
2019-01-12T07:07:28.295Z,7.00
2019-01-12T07:08:28.425Z,7.30
2019-01-12T07:09:28.554Z,6.90
2019-01-12T07:10:28.680Z,6.40
2019-01-12T07:11:28.818Z,7.20
2019-01-12T07:12:28.953Z,7.20
2019-01-12T07:13:29.075Z,7.30
2019-01-12T07:14:29.202Z,7.30
2019-01-12T07:15:29.338Z,7.80
2019-01-12T07:16:29.459Z,6.40
2019-01-12T07:17:29.611Z,7.30
2019-01-12T07:18:29.728Z,7.20
2019-01-12T07:19:29.857Z,7.00
2019-01-12T07:20:29.980Z,7.40
2019-01-12T07:21:30.111Z,7.40
2019-01-12T07:22:30.234Z,6.40
2019-01-12T07:23:30.366Z,7.50
2019-01-12T07:24:30.491Z,7.50
2019-01-12T07:25:30.619Z,7.60
2019-01-12T07:26:30.745Z,7.10
2019-01-12T07:27:30.881Z,7.40
2019-01-12T07:28:31.009Z,7.40
2019-01-12T07:29:31.136Z,7.90
2019-01-12T07:30:31.265Z,7.20
2019-01-12T07:31:31.394Z,7.10
2019-01-12T07:32:31.521Z,7.40
2019-01-12T07:33:31.642Z,7.20
2019-01-12T07:34:31.771Z,7.20
2019-01-12T07:35:31.898Z,7.00
2019-01-12T07:36:32.025Z,7.20
2019-01-12T07:37:32.155Z,6.40
2019-01-12T07:38:32.303Z,6.60
2019-01-12T07:39:32.412Z,6.70
2019-01-12T07:40:32.544Z,7.40
2019-01-12T07:41:32.670Z,6.90
2019-01-12T07:42:32.799Z,6.50
2019-01-12T07:43:32.930Z,6.60
2019-01-12T07:44:33.947Z,6.70
2019-01-12T07:45:33.229Z,7.00
2019-01-12T07:46:33.364Z,6.70
2019-01-12T07:47:33.496Z,6.70
2019-01-12T07:48:33.613Z,6.70
2019-01-12T07:49:33.736Z,7.30
2019-01-12T07:50:33.866Z,7.00
2019-01-12T07:51:33.996Z,7.30
2019-01-12T07:52:34.130Z,7.40
2019-01-12T07:53:34.253Z,7.70
2019-01-12T07:54:34.384Z,7.30
2019-01-12T07:55:34.507Z,7.70
2019-01-12T07:56:34.643Z,8.10
2019-01-12T07:57:34.771Z,7.80
2019-01-12T07:58:34.901Z,7.60
2019-01-12T07:59:35.029Z,8.50
2019-01-12T08:00:35.157Z,7.90
2019-01-12T08:01:35.301Z,8.10
2019-01-12T08:02:35.449Z,8.10
2019-01-12T08:03:35.580Z,8.30
2019-01-12T08:04:35.763Z,8.20
2019-01-12T08:05:35.893Z,7.90
2019-01-12T08:06:36.034Z,8.80
2019-01-12T08:07:36.159Z,8.10
2019-01-12T08:08:36.289Z,8.40
2019-01-12T08:09:36.421Z,8.30
2019-01-12T08:10:36.546Z,8.00
2019-01-12T08:11:36.674Z,7.80
2019-01-12T08:12:36.809Z,7.70
2019-01-12T08:13:36.938Z,7.90
2019-01-12T08:14:37.061Z,8.00
2019-01-12T08:15:37.195Z,7.80
2019-01-12T08:16:37.326Z,7.80
2019-01-12T08:17:37.461Z,8.40
2019-01-12T08:18:37.586Z,8.00
2019-01-12T08:19:37.717Z,7.70
2019-01-12T08:20:37.846Z,8.90
2019-01-12T08:21:37.981Z,8.60
2019-01-12T08:22:38.105Z,8.60
2019-01-12T08:23:38.236Z,8.30
2019-01-12T08:24:38.364Z,8.70
2019-01-12T08:25:38.489Z,9.20
2019-01-12T08:26:38.617Z,9.10
2019-01-12T08:27:38.747Z,9.30
2019-01-12T08:28:38.882Z,9.10
2019-01-12T08:29:39.023Z,9.20
2019-01-12T08:30:39.154Z,9.80
2019-01-12T08:31:39.285Z,8.60
2019-01-12T08:32:39.415Z,13.00
2019-01-12T08:33:39.539Z,8.80
2019-01-12T08:34:39.674Z,8.00
2019-01-12T08:35:39.803Z,9.20
2019-01-12T08:36:39.932Z,9.00
2019-01-12T08:37:40.078Z,8.20
2019-01-12T08:38:40.205Z,7.70
2019-01-12T08:39:40.339Z,8.60
2019-01-12T08:40:40.469Z,7.70
2019-01-12T08:41:40.603Z,8.70
2019-01-12T08:42:40.731Z,8.50
2019-01-12T08:43:40.859Z,8.70
2019-01-12T08:44:40.989Z,9.50
2019-01-12T08:45:41.126Z,9.90
2019-01-12T08:46:41.254Z,9.10
2019-01-12T08:47:41.404Z,9.20
2019-01-12T08:48:41.535Z,9.60
2019-01-12T08:49:41.661Z,8.90
2019-01-12T08:50:41.789Z,8.70
2019-01-12T08:51:41.912Z,9.20
2019-01-12T08:52:42.040Z,9.60
2019-01-12T08:53:42.173Z,9.60
2019-01-12T08:54:42.302Z,8.90
2019-01-12T08:55:42.427Z,8.80
2019-01-12T08:56:42.560Z,9.30
2019-01-12T08:57:42.703Z,9.30
2019-01-12T08:58:42.827Z,9.50
2019-01-12T08:59:42.956Z,9.40
2019-01-12T09:00:43.096Z,9.50
2019-01-12T09:01:43.228Z,9.80
2019-01-12T09:02:43.363Z,9.30
2019-01-12T09:03:43.511Z,9.70
2019-01-12T09:04:43.807Z,10.50
2019-01-12T09:05:43.769Z,10.40
2019-01-12T09:06:43.902Z,9.80
2019-01-12T09:07:44.093Z,10.00
2019-01-12T09:08:44.220Z,10.00
2019-01-12T09:09:44.351Z,9.80
2019-01-12T09:10:44.482Z,9.80
2019-01-12T09:11:44.608Z,9.30
2019-01-12T09:12:44.749Z,9.80
2019-01-12T09:13:44.872Z,8.30
2019-01-12T09:14:45.002Z,8.90
2019-01-12T09:15:45.134Z,7.80
2019-01-12T09:16:45.264Z,9.50
2019-01-12T09:17:45.392Z,8.10
2019-01-12T09:18:45.522Z,9.40
2019-01-12T09:19:45.660Z,8.40
2019-01-12T09:20:45.785Z,8.70
2019-01-12T09:21:45.933Z,8.00
2019-01-12T09:22:46.049Z,8.30
2019-01-12T09:23:46.168Z,8.60
2019-01-12T09:24:46.300Z,8.80
2019-01-12T09:25:46.426Z,9.90
2019-01-12T09:26:46.557Z,7.80
2019-01-12T09:27:46.690Z,8.80
2019-01-12T09:28:46.820Z,10.20
2019-01-12T09:29:46.954Z,13.30
2019-01-12T09:30:48.629Z,11.70
2019-01-12T09:31:47.227Z,12.20
2019-01-12T09:32:47.357Z,9.60
2019-01-12T09:33:47.485Z,10.50
2019-01-12T09:34:47.612Z,8.20
2019-01-12T09:35:47.750Z,9.90
2019-01-12T09:36:47.875Z,8.80
2019-01-12T09:37:48.000Z,7.40
2019-01-12T09:38:48.802Z,7.10
2019-01-12T09:39:48.260Z,6.50
2019-01-12T09:40:48.390Z,6.60
2019-01-12T09:41:48.519Z,7.30
2019-01-12T09:42:48.648Z,7.40
2019-01-12T09:43:48.777Z,7.30
2019-01-12T09:44:48.903Z,6.90
2019-01-12T09:45:49.041Z,7.10
2019-01-12T09:46:49.175Z,8.40
2019-01-12T09:47:49.304Z,6.70
2019-01-12T09:48:49.435Z,7.00
2019-01-12T09:49:49.567Z,7.40
2019-01-12T09:50:49.725Z,7.00
2019-01-12T09:53:22.229Z,13.50
2019-01-12T09:54:22.377Z,6.30
2019-01-12T09:55:22.490Z,6.90
2019-01-12T09:56:22.626Z,5.80
2019-01-12T09:57:22.757Z,6.20
2019-01-12T09:58:22.889Z,4.90
2019-01-12T09:59:23.013Z,5.50
2019-01-12T10:00:23.145Z,5.30
2019-01-12T10:01:23.277Z,5.30
2019-01-12T10:02:23.410Z,5.00
2019-01-12T10:03:23.552Z,4.40
2019-01-12T10:04:23.662Z,4.90
2019-01-12T10:05:23.802Z,5.10
2019-01-12T10:06:23.929Z,5.30
2019-01-12T10:07:24.061Z,6.00
2019-01-12T10:08:24.192Z,6.00
2019-01-12T10:09:24.320Z,6.00
2019-01-12T10:10:24.450Z,5.30
2019-01-12T10:11:24.576Z,5.20
2019-01-12T10:12:24.709Z,4.80
2019-01-12T10:13:24.842Z,4.80
2019-01-12T10:14:24.981Z,5.70
2019-01-12T10:15:25.108Z,4.90
2019-01-12T10:16:25.241Z,3.90
2019-01-12T10:17:25.380Z,4.30
2019-01-12T10:18:25.517Z,4.20
2019-01-12T10:19:25.626Z,4.30
2019-01-12T10:20:25.753Z,4.20
2019-01-12T10:21:25.886Z,4.90
2019-01-12T10:22:28.631Z,4.20
2019-01-12T10:23:26.144Z,4.50
2019-01-12T10:24:26.272Z,4.80
2019-01-12T10:25:26.398Z,4.70
2019-01-12T10:26:26.528Z,5.40
2019-01-12T10:27:26.652Z,5.20
2019-01-12T10:28:26.778Z,5.20
2019-01-12T10:29:26.928Z,5.10
2019-01-12T10:30:27.054Z,6.30
2019-01-12T10:31:27.214Z,6.00
2019-01-12T10:32:27.307Z,5.50
2019-01-12T10:33:27.433Z,6.00
2019-01-12T10:34:27.576Z,5.50
2019-01-12T10:35:27.700Z,5.80
2019-01-12T10:36:27.835Z,6.00
2019-01-12T10:37:27.958Z,6.30
2019-01-12T10:38:28.088Z,6.10
2019-01-12T10:39:28.220Z,6.30
2019-01-12T10:40:28.361Z,6.50
2019-01-12T10:41:28.495Z,6.60
2019-01-12T10:42:28.620Z,6.80
2019-01-12T10:43:28.752Z,6.20
2019-01-12T10:44:28.879Z,5.90
2019-01-12T10:45:29.004Z,6.00
2019-01-12T10:46:29.131Z,6.00
2019-01-12T10:47:29.266Z,6.90
2019-01-12T10:48:29.390Z,7.60
2019-01-12T10:49:29.519Z,7.00
2019-01-12T10:50:29.656Z,6.90
2019-01-12T10:51:29.794Z,7.80
2019-01-12T10:52:29.925Z,7.80
2019-01-12T10:53:30.053Z,7.80
2019-01-12T10:54:30.191Z,7.90
2019-01-12T10:55:30.327Z,7.50
2019-01-12T10:56:30.463Z,8.50
2019-01-12T10:57:30.593Z,8.30
2019-01-12T10:58:30.718Z,9.10
2019-01-12T10:59:30.846Z,8.00
2019-01-12T11:00:30.971Z,8.70
2019-01-12T11:01:31.097Z,9.30
2019-01-12T11:02:31.226Z,8.70
2019-01-12T11:03:31.350Z,8.30
2019-01-12T11:04:31.480Z,8.40
2019-01-12T11:05:31.601Z,8.30
2019-01-12T11:06:31.738Z,8.20
2019-01-12T11:07:31.861Z,8.30
2019-01-12T11:08:31.995Z,8.80
2019-01-12T11:09:32.127Z,9.00
2019-01-12T11:10:32.249Z,9.30
2019-01-12T11:11:32.381Z,8.90
2019-01-12T11:12:32.505Z,8.60
2019-01-12T11:13:32.635Z,8.60
2019-01-12T11:14:32.759Z,9.10
2019-01-12T11:15:32.896Z,9.40
2019-01-12T11:16:33.019Z,9.10
2019-01-12T11:17:33.150Z,8.60
2019-01-12T11:18:33.272Z,8.80
2019-01-12T11:19:33.405Z,8.60
2019-01-12T11:20:33.530Z,8.50
2019-01-12T11:21:33.661Z,8.90
2019-01-12T11:22:33.788Z,8.60
2019-01-12T11:23:33.923Z,8.80
2019-01-12T11:24:34.058Z,8.60
2019-01-12T11:25:34.191Z,8.70
2019-01-12T11:26:34.327Z,7.60
2019-01-12T11:27:34.454Z,7.80
2019-01-12T11:28:34.590Z,8.30
2019-01-12T11:29:34.713Z,8.30
2019-01-12T11:30:34.841Z,8.90
2019-01-12T11:31:34.975Z,7.80
2019-01-12T11:32:35.113Z,8.80
2019-01-12T11:33:35.253Z,8.60
2019-01-12T11:34:35.381Z,8.60
2019-01-12T11:35:35.515Z,9.50
2019-01-12T11:36:35.645Z,9.30
2019-01-12T11:37:35.772Z,9.40
2019-01-12T11:38:35.902Z,8.50
2019-01-12T11:39:36.035Z,8.60
2019-01-12T11:40:36.161Z,8.90
2019-01-12T11:41:36.288Z,9.00
2019-01-12T11:42:36.414Z,9.30
2019-01-12T11:43:36.544Z,8.90
2019-01-12T11:44:36.676Z,9.30
2019-01-12T11:45:36.802Z,9.40
2019-01-12T11:46:36.931Z,9.40
2019-01-12T11:47:37.062Z,10.20
2019-01-12T11:48:37.202Z,10.00
2019-01-12T11:49:37.330Z,10.10
2019-01-12T11:50:37.462Z,11.00
2019-01-12T11:51:37.590Z,12.00
2019-01-12T11:52:37.716Z,11.10
2019-01-12T11:53:37.843Z,11.00
2019-01-12T11:54:38.742Z,11.30
2019-01-12T11:55:38.107Z,10.80
2019-01-12T11:56:38.230Z,11.80
2019-01-12T11:57:38.358Z,11.70
2019-01-12T11:58:38.494Z,11.50
2019-01-12T11:59:38.628Z,11.70
2019-01-12T12:00:38.754Z,11.00
2019-01-12T12:01:38.887Z,11.10
2019-01-12T12:02:39.012Z,11.60
2019-01-12T12:03:39.143Z,11.80
2019-01-12T12:04:39.275Z,11.40
2019-01-12T12:05:39.400Z,11.70
2019-01-12T12:06:39.531Z,12.70
2019-01-12T12:07:39.667Z,13.40
2019-01-12T12:08:39.807Z,12.50
2019-01-12T12:09:39.931Z,12.20
2019-01-12T12:10:40.050Z,12.40
2019-01-12T12:11:40.184Z,12.90
2019-01-12T12:12:40.312Z,12.70
2019-01-12T12:13:40.445Z,12.50
2019-01-12T12:14:40.571Z,13.20
2019-01-12T12:15:40.698Z,12.50
2019-01-12T12:16:40.825Z,12.10
2019-01-12T12:17:40.953Z,13.30
2019-01-12T12:18:41.078Z,13.10
2019-01-12T12:19:41.213Z,12.90
2019-01-12T12:20:41.338Z,13.40
2019-01-12T12:21:41.470Z,13.80
2019-01-12T12:22:41.603Z,12.50
2019-01-12T12:23:41.740Z,13.20
2019-01-12T12:24:41.869Z,12.80
2019-01-12T12:25:42.007Z,12.40
2019-01-12T12:26:42.135Z,12.50
2019-01-12T12:27:42.261Z,12.40
2019-01-12T12:28:42.396Z,12.30
2019-01-12T12:29:42.525Z,12.10
2019-01-12T12:30:42.651Z,11.60
2019-01-12T12:31:42.785Z,11.90
2019-01-12T12:32:42.909Z,12.80
2019-01-12T12:33:43.034Z,12.00
2019-01-12T12:34:43.166Z,12.20
2019-01-12T12:35:43.292Z,12.00
2019-01-12T12:36:43.419Z,11.80
2019-01-12T12:37:43.542Z,12.20
2019-01-12T12:38:43.672Z,10.80
2019-01-12T12:39:43.802Z,11.00
2019-01-12T12:40:43.929Z,10.30
2019-01-12T12:41:44.056Z,10.70
2019-01-12T12:42:44.195Z,10.40
2019-01-12T12:43:44.319Z,10.30
2019-01-12T12:44:44.441Z,10.30
2019-01-12T12:45:44.574Z,9.90
2019-01-12T12:46:44.707Z,10.00
2019-01-12T12:47:44.833Z,9.70
2019-01-12T12:48:44.964Z,9.70
2019-01-12T12:49:45.085Z,9.40
2019-01-12T12:50:45.229Z,9.20
2019-01-12T12:51:45.354Z,9.40
2019-01-12T12:52:45.592Z,9.50
2019-01-12T12:53:45.603Z,9.70
2019-01-12T12:54:45.723Z,10.20
2019-01-12T12:55:45.854Z,9.30
2019-01-12T12:56:45.978Z,9.20
2019-01-12T12:57:46.101Z,9.90
2019-01-12T12:58:46.232Z,9.70
2019-01-12T12:59:46.919Z,10.20
2019-01-12T13:00:46.488Z,9.80
2019-01-12T13:01:46.623Z,10.20
2019-01-12T13:02:46.751Z,9.70
2019-01-12T13:03:46.904Z,10.50
2019-01-12T13:04:47.029Z,10.20
2019-01-12T13:05:47.160Z,9.40
2019-01-12T13:06:47.289Z,9.80
2019-01-12T13:07:47.444Z,10.30
2019-01-12T13:08:48.529Z,9.80
2019-01-12T13:09:47.699Z,10.20
2019-01-12T13:10:47.825Z,10.30